createdAt,value
2019-02-19T00:00:38.847Z,17.03
2019-02-19T00:03:09.500Z,17.63
2019-02-19T00:05:37.707Z,17.97
2019-02-19T00:08:06.281Z,18.37
2019-02-19T00:10:35.527Z,20.47
2019-02-19T00:13:04.163Z,21.13
2019-02-19T00:15:32.661Z,17.70
2019-02-19T00:18:01.217Z,17.80
2019-02-19T00:20:29.777Z,17.40
2019-02-19T00:22:58.322Z,20.00
2019-02-19T00:25:31.143Z,18.10
2019-02-19T00:27:59.699Z,21.37
2019-02-19T00:30:28.321Z,18.93
2019-02-19T00:33:01.401Z,18.80
2019-02-19T00:35:29.949Z,21.73
2019-02-19T00:37:58.531Z,21.77
2019-02-19T00:40:27.019Z,19.60
2019-02-19T00:42:55.554Z,17.83
2019-02-19T00:45:24.136Z,18.67
2019-02-19T00:47:52.696Z,18.87
2019-02-19T00:50:22.159Z,19.00
2019-02-19T00:52:50.740Z,19.47
2019-02-19T00:55:19.225Z,20.70
2019-02-19T00:57:47.797Z,16.37
2019-02-19T01:00:16.466Z,20.00
2019-02-19T01:02:45.386Z,19.43
2019-02-19T01:05:14.390Z,21.47
2019-02-19T01:07:43.019Z,18.00
2019-02-19T01:10:15.718Z,20.53
2019-02-19T01:12:44.261Z,20.37
2019-02-19T01:15:12.832Z,19.27
2019-02-19T01:17:41.428Z,18.90
2019-02-19T01:20:10.301Z,19.37
2019-02-19T01:22:38.873Z,17.77
2019-02-19T01:25:08.168Z,21.30
2019-02-19T01:27:36.758Z,19.37
2019-02-19T01:30:08.538Z,22.40
2019-02-19T01:32:37.128Z,17.40
2019-02-19T01:35:06.812Z,18.43
2019-02-19T01:37:35.372Z,18.50
2019-02-19T01:40:05.794Z,18.47
2019-02-19T01:42:34.419Z,18.83
2019-02-19T01:45:02.986Z,17.90
2019-02-19T01:47:31.478Z,16.47
2019-02-19T01:50:00.022Z,20.97
2019-02-19T01:52:35.296Z,16.63
2019-02-19T01:55:08.292Z,16.80
2019-02-19T01:57:36.836Z,16.43
2019-02-19T02:00:07.808Z,15.63
2019-02-19T02:02:36.640Z,16.33
2019-02-19T02:05:05.758Z,18.57
2019-02-19T02:07:37.621Z,15.13
2019-02-19T02:10:08.836Z,16.23
2019-02-19T02:12:37.417Z,15.43
2019-02-19T02:15:07.302Z,15.73
2019-02-19T02:17:38.681Z,16.60
2019-02-19T02:20:12.974Z,15.57
2019-02-19T02:22:41.526Z,16.63
2019-02-19T02:25:10.234Z,16.20
2019-02-19T02:27:38.790Z,16.00
2019-02-19T02:30:08.197Z,15.33
2019-02-19T02:32:37.034Z,19.13
2019-02-19T02:35:05.661Z,15.87
2019-02-19T02:37:34.236Z,17.00
2019-02-19T02:40:03.115Z,17.67
2019-02-19T02:42:31.686Z,15.83
2019-02-19T02:45:00.496Z,14.30
2019-02-19T02:47:28.988Z,17.90
2019-02-19T02:50:00.270Z,16.33
2019-02-19T02:52:29.163Z,21.83
2019-02-19T02:54:57.738Z,19.70
2019-02-19T02:57:26.315Z,15.83
2019-02-19T02:59:54.840Z,15.50
2019-02-19T03:02:23.407Z,18.60
2019-02-19T03:04:51.896Z,15.57
2019-02-19T03:07:24.523Z,15.27
2019-02-19T03:09:53.118Z,16.50
2019-02-19T03:12:21.674Z,14.20
2019-02-19T03:14:50.250Z,14.63
2019-02-19T03:17:18.803Z,15.37
2019-02-19T03:19:47.334Z,17.00
2019-02-19T03:22:15.954Z,13.23
2019-02-19T03:24:44.500Z,14.67
2019-02-19T03:27:12.988Z,17.53
2019-02-19T03:29:41.915Z,15.60
2019-02-19T03:32:10.457Z,15.47
2019-02-19T03:34:39.061Z,14.87
2019-02-19T03:37:07.689Z,15.20
2019-02-19T03:39:36.189Z,16.67
2019-02-19T03:42:04.830Z,16.20
2019-02-19T03:44:33.384Z,16.33
2019-02-19T03:47:01.973Z,18.80
2019-02-19T03:49:32.081Z,15.67
2019-02-19T03:52:03.389Z,16.83
2019-02-19T03:54:31.972Z,15.90
2019-02-19T03:57:00.755Z,14.13
2019-02-19T03:59:29.601Z,16.30
2019-02-19T04:01:58.157Z,15.70
2019-02-19T04:04:31.207Z,16.00
2019-02-19T04:06:59.776Z,17.20
2019-02-19T04:09:28.333Z,14.43
2019-02-19T04:11:59.252Z,15.17
2019-02-19T04:14:34.857Z,13.07
2019-02-19T04:17:03.431Z,16.47
2019-02-19T04:19:31.980Z,13.57
2019-02-19T04:22:00.485Z,14.87
2019-02-19T04:24:29.031Z,17.77
2019-02-19T04:26:57.584Z,17.43
2019-02-19T04:29:26.165Z,16.30
2019-02-19T04:31:54.710Z,16.07
2019-02-19T04:34:23.249Z,14.13
2019-02-19T04:36:51.819Z,14.57
2019-02-19T04:39:20.361Z,18.17
2019-02-19T04:41:48.966Z,15.27
2019-02-19T04:44:17.505Z,15.13
2019-02-19T04:46:46.046Z,14.43
2019-02-19T04:49:14.614Z,14.53
2019-02-19T04:51:43.162Z,16.87
2019-02-19T04:54:11.756Z,18.60
2019-02-19T04:56:40.327Z,16.03
2019-02-19T04:59:08.845Z,16.80
2019-02-19T05:01:37.409Z,15.87
2019-02-19T05:04:05.957Z,16.23
2019-02-19T05:06:34.545Z,19.33
2019-02-19T05:09:04.592Z,15.47
2019-02-19T05:11:33.133Z,13.70
2019-02-19T05:14:01.636Z,18.23
2019-02-19T05:16:30.184Z,18.20
2019-02-19T05:18:58.814Z,18.63
2019-02-19T05:21:28.238Z,15.73
2019-02-19T05:23:56.794Z,17.20
2019-02-19T05:26:25.366Z,17.10
2019-02-19T05:28:53.895Z,16.13
2019-02-19T05:31:22.482Z,16.80
2019-02-19T05:33:51.027Z,13.77
2019-02-19T05:36:19.596Z,15.60
2019-02-19T05:38:49.071Z,12.60
2019-02-19T05:41:17.600Z,16.67
2019-02-19T05:43:46.110Z,13.13
2019-02-19T05:46:14.749Z,16.07
2019-02-19T05:48:43.286Z,14.17
2019-02-19T05:51:11.789Z,13.70
2019-02-19T05:53:40.335Z,15.10
2019-02-19T05:56:08.926Z,16.13
2019-02-19T05:58:37.401Z,14.27
2019-02-19T06:01:06.976Z,14.10
2019-02-19T06:03:39.201Z,16.10
2019-02-19T06:06:07.937Z,16.07
2019-02-19T06:08:36.512Z,17.63
2019-02-19T06:11:05.118Z,19.33
2019-02-19T06:13:36.561Z,15.93
2019-02-19T06:16:09.258Z,16.67
2019-02-19T06:18:41.663Z,17.67
2019-02-19T06:21:10.790Z,15.53
2019-02-19T06:23:39.335Z,18.90
2019-02-19T06:26:12.617Z,15.17
2019-02-19T06:28:41.493Z,16.00
2019-02-19T06:31:10.075Z,16.30
2019-02-19T06:33:38.632Z,19.10
2019-02-19T06:36:07.198Z,16.23
2019-02-19T06:38:38.508Z,22.03
2019-02-19T06:41:08.530Z,21.10
2019-02-19T06:43:37.298Z,15.50
2019-02-19T06:46:07.608Z,19.27
2019-02-19T06:48:36.112Z,19.30
2019-02-19T06:51:04.828Z,20.53
2019-02-19T06:53:33.399Z,18.90
2019-02-19T06:56:01.984Z,20.07
2019-02-19T06:58:30.613Z,15.87
2019-02-19T07:00:59.194Z,17.23
2019-02-19T07:03:31.940Z,21.83
2019-02-19T07:06:02.728Z,15.07
2019-02-19T07:08:31.310Z,19.33
2019-02-19T07:10:59.841Z,20.93
2019-02-19T07:13:28.435Z,18.77
2019-02-19T07:15:57.068Z,18.47
2019-02-19T07:18:26.520Z,16.37
2019-02-19T07:20:55.084Z,20.50
2019-02-19T07:23:25.966Z,14.70
2019-02-19T07:25:54.544Z,18.73
2019-02-19T07:28:24.622Z,20.47
2019-02-19T07:30:53.430Z,16.27
2019-02-19T07:33:21.989Z,17.43
2019-02-19T07:35:50.464Z,21.40
2019-02-19T07:38:19.509Z,18.17
2019-02-19T07:40:48.062Z,17.57
2019-02-19T07:43:16.633Z,17.10
2019-02-19T07:45:45.156Z,20.30
2019-02-19T07:48:31.605Z,16.60
2019-02-19T07:51:00.191Z,21.27
2019-02-19T07:53:28.759Z,24.87
2019-02-19T07:56:03.433Z,18.33
2019-02-19T07:58:32.014Z,25.93
2019-02-19T08:01:01.895Z,18.27
2019-02-19T08:03:32.780Z,20.50
2019-02-19T08:06:11.454Z,13.97
2019-02-19T08:08:42.934Z,15.93
2019-02-19T08:11:11.423Z,17.83
2019-02-19T08:13:39.971Z,18.43
2019-02-19T08:16:08.528Z,18.00
2019-02-19T08:18:37.006Z,16.23
2019-02-19T08:21:05.573Z,16.20
2019-02-19T08:23:34.249Z,16.87
2019-02-19T08:26:02.808Z,14.17
2019-02-19T08:28:31.302Z,14.90
2019-02-19T08:30:59.865Z,17.37
2019-02-19T08:33:34.070Z,17.37
2019-02-19T08:36:08.292Z,19.43
2019-02-19T08:38:43.626Z,19.73
2019-02-19T08:41:18.297Z,17.20
2019-02-19T08:43:47.129Z,17.90
2019-02-19T08:46:17.464Z,15.73
2019-02-19T08:48:46.005Z,16.00
2019-02-19T08:51:14.604Z,16.97
2019-02-19T08:53:45.850Z,15.73
2019-02-19T08:56:19.682Z,18.50
2019-02-19T08:58:52.919Z,16.73
2019-02-19T09:01:38.106Z,18.50
2019-02-19T09:04:08.582Z,18.73
2019-02-19T09:06:40.132Z,16.33
2019-02-19T09:09:11.747Z,17.30
2019-02-19T09:11:40.303Z,17.37
2019-02-19T09:14:08.889Z,18.40
2019-02-19T09:16:37.501Z,14.57
2019-02-19T09:19:06.076Z,16.17
2019-02-19T09:21:34.619Z,18.07
2019-02-19T09:24:09.479Z,15.27
2019-02-19T09:26:35.871Z,16.60
2019-02-19T09:29:05.734Z,12.40
2019-02-19T09:31:34.515Z,17.63
2019-02-19T09:34:03.032Z,12.63
2019-02-19T09:36:31.583Z,12.70
2019-02-19T09:39:00.220Z,15.90
2019-02-19T09:41:28.773Z,14.00
2019-02-19T09:43:58.250Z,15.20
2019-02-19T09:46:26.721Z,16.17
2019-02-19T09:48:55.270Z,15.43
2019-02-19T09:51:23.833Z,13.57
2019-02-19T09:53:55.080Z,15.07
2019-02-19T09:56:24.547Z,14.77
2019-02-19T09:58:53.092Z,15.83
2019-02-19T10:01:21.592Z,13.37
2019-02-19T10:03:50.192Z,15.00
2019-02-19T10:06:18.741Z,13.10
2019-02-19T10:08:47.346Z,9.60
2019-02-19T10:11:18.643Z,12.40
2019-02-19T10:13:47.951Z,7.87
2019-02-19T10:16:18.142Z,10.47
2019-02-19T10:18:46.760Z,16.33
2019-02-19T10:21:17.999Z,6.40
2019-02-19T10:23:46.529Z,9.80
2019-02-19T10:26:15.094Z,9.73
2019-02-19T10:28:43.715Z,10.07
2019-02-19T10:31:12.218Z,7.60
2019-02-19T10:33:43.457Z,12.93
2019-02-19T10:36:12.017Z,9.23
2019-02-19T10:38:40.523Z,10.13
2019-02-19T10:41:14.924Z,10.87
2019-02-19T10:43:43.538Z,10.80
2019-02-19T10:46:12.092Z,9.17
2019-02-19T10:48:40.707Z,8.00
2019-02-19T10:51:09.281Z,11.83
2019-02-19T10:53:37.844Z,8.27
2019-02-19T10:56:06.385Z,6.87
2019-02-19T10:58:34.964Z,10.03
2019-02-19T11:01:03.547Z,12.73
2019-02-19T11:03:32.138Z,8.10
2019-02-19T11:06:00.689Z,5.57
2019-02-19T11:08:29.269Z,9.13
2019-02-19T11:10:58.816Z,8.17
2019-02-19T11:13:27.354Z,9.27
2019-02-19T11:15:56.002Z,8.63
2019-02-19T11:18:28.443Z,6.00
2019-02-19T11:20:54.786Z,6.47
2019-02-19T11:23:23.344Z,10.67
2019-02-19T11:25:52.645Z,6.63
2019-02-19T11:28:21.331Z,5.23
2019-02-19T11:30:51.376Z,6.03
2019-02-19T11:33:24.831Z,8.10
2019-02-19T11:35:54.814Z,6.73
2019-02-19T11:38:23.505Z,5.43
2019-02-19T11:40:52.080Z,9.33
2019-02-19T11:43:20.636Z,8.10
2019-02-19T11:45:54.269Z,8.77
2019-02-19T11:48:36.735Z,7.63
2019-02-19T11:51:00.360Z,8.87
2019-02-19T11:53:28.897Z,7.03
2019-02-19T11:55:57.455Z,10.07
2019-02-19T11:58:26.029Z,8.10
2019-02-19T12:00:54.674Z,7.07
2019-02-19T12:03:26.289Z,7.93
2019-02-19T12:05:55.176Z,7.33
2019-02-19T12:08:23.996Z,6.00
2019-02-19T12:10:52.518Z,10.47
2019-02-19T12:13:21.157Z,10.23
2019-02-19T12:15:50.563Z,9.03
2019-02-19T12:18:21.717Z,7.87
2019-02-19T12:20:50.344Z,8.53
2019-02-19T12:23:20.156Z,7.87
2019-02-19T12:25:50.269Z,6.53
2019-02-19T12:28:18.921Z,6.27
2019-02-19T12:30:51.894Z,9.90
2019-02-19T12:33:20.399Z,7.40
2019-02-19T12:35:49.030Z,7.77
2019-02-19T12:38:17.589Z,9.67
2019-02-19T12:40:56.663Z,9.57
2019-02-19T12:43:25.143Z,8.53
2019-02-19T12:45:56.679Z,8.87
2019-02-19T12:48:25.258Z,8.50
2019-02-19T12:50:53.971Z,9.00
2019-02-19T12:53:22.547Z,8.27
2019-02-19T12:55:51.105Z,8.87
2019-02-19T12:58:22.007Z,8.63
2019-02-19T13:00:58.316Z,10.20
2019-02-19T13:03:26.901Z,8.70
2019-02-19T13:06:01.169Z,9.57
2019-02-19T13:08:32.722Z,7.40
2019-02-19T13:11:02.828Z,10.43
2019-02-19T13:13:35.731Z,7.60
2019-02-19T13:16:04.308Z,8.90
2019-02-19T13:18:32.866Z,12.90
2019-02-19T13:21:01.491Z,8.60
2019-02-19T13:23:31.567Z,8.23
2019-02-19T13:26:00.115Z,11.93
2019-02-19T13:28:28.729Z,8.27
2019-02-19T13:30:57.283Z,9.23
2019-02-19T13:33:25.861Z,13.57
2019-02-19T13:35:54.404Z,10.80
2019-02-19T13:38:23.202Z,12.83
2019-02-19T13:40:52.075Z,11.47
2019-02-19T13:43:20.899Z,8.87
2019-02-19T13:45:49.478Z,15.23
2019-02-19T13:48:18.081Z,16.93
2019-02-19T13:50:46.595Z,9.40
2019-02-19T13:53:16.772Z,13.57
2019-02-19T13:56:00.472Z,14.23
2019-02-19T13:58:29.041Z,10.50
2019-02-19T14:00:59.127Z,12.17
2019-02-19T14:03:27.665Z,8.37
2019-02-19T14:05:56.620Z,9.37
2019-02-19T14:08:25.159Z,10.07
2019-02-19T14:10:53.740Z,12.87
2019-02-19T14:13:22.295Z,10.27
2019-02-19T14:15:52.488Z,12.17
2019-02-19T14:18:25.090Z,18.07
2019-02-19T14:21:04.278Z,10.00
2019-02-19T14:23:52.265Z,11.87
2019-02-19T14:26:38.272Z,13.20
2019-02-19T14:29:22.202Z,13.70
2019-02-19T14:32:09.559Z,11.80
2019-02-19T14:34:56.025Z,15.37
2019-02-19T14:37:26.266Z,10.93
2019-02-19T14:40:10.558Z,13.37
2019-02-19T14:42:57.417Z,13.77
2019-02-19T14:45:28.024Z,13.87
2019-02-19T14:48:14.356Z,10.63
2019-02-19T14:51:00.580Z,18.03
2019-02-19T14:53:46.773Z,18.63
2019-02-19T14:56:29.062Z,13.63
2019-02-19T14:59:07.845Z,19.40
2019-02-19T15:01:40.493Z,12.17
2019-02-19T15:04:13.633Z,17.73
2019-02-19T15:07:01.781Z,14.60
2019-02-19T15:09:48.418Z,13.30
2019-02-19T15:12:35.519Z,16.13
2019-02-19T15:15:16.316Z,14.83
2019-02-19T15:17:55.238Z,16.30
2019-02-19T15:20:41.698Z,12.87
2019-02-19T15:23:15.693Z,17.40
2019-02-19T15:25:46.219Z,12.73
2019-02-19T15:28:16.881Z,12.80
2019-02-19T15:30:56.010Z,11.43
2019-02-19T15:33:27.009Z,20.10
2019-02-19T15:36:05.847Z,14.73
2019-02-19T15:38:39.025Z,11.27
2019-02-19T15:41:11.999Z,15.40
2019-02-19T15:43:42.193Z,10.93
2019-02-19T15:46:12.313Z,13.90
2019-02-19T15:48:45.510Z,13.87
2019-02-19T15:51:15.684Z,10.90
2019-02-19T15:53:57.487Z,15.90
2019-02-19T15:56:33.409Z,14.73
2019-02-19T15:59:03.611Z,17.70
2019-02-19T16:01:42.906Z,16.23
2019-02-19T16:04:16.116Z,15.63
2019-02-19T16:06:46.362Z,15.33
2019-02-19T16:09:16.571Z,14.47
2019-02-19T16:12:04.277Z,12.97
2019-02-19T16:14:49.643Z,18.73
2019-02-19T16:17:22.547Z,18.03
2019-02-19T16:20:16.294Z,17.90
2019-02-19T16:22:49.571Z,16.60
2019-02-19T16:25:28.779Z,18.87
2019-02-19T16:28:05.734Z,13.20
2019-02-19T16:30:54.441Z,18.00
2019-02-19T16:33:36.469Z,17.67
2019-02-19T16:36:09.165Z,25.37
2019-02-19T16:38:55.510Z,16.37
2019-02-19T16:41:25.714Z,14.57
2019-02-19T16:43:58.880Z,20.23
2019-02-19T16:46:34.883Z,16.43
2019-02-19T16:49:21.343Z,17.60
2019-02-19T16:51:51.612Z,17.40
2019-02-19T16:54:29.373Z,15.90
2019-02-19T16:57:05.332Z,17.17
2019-02-19T16:59:50.295Z,17.73
2019-02-19T17:02:25.097Z,16.07
2019-02-19T17:05:01.056Z,17.07
2019-02-19T17:11:14.602Z,16.90
2019-02-19T17:13:47.319Z,22.20
2019-02-19T17:16:23.646Z,20.33
2019-02-19T17:18:57.079Z,15.00
2019-02-19T17:21:32.671Z,18.47
2019-02-19T17:24:21.173Z,19.20
2019-02-19T17:26:51.898Z,15.40
2019-02-19T17:29:26.453Z,18.57
2019-02-19T17:32:08.183Z,20.40
2019-02-19T17:34:44.769Z,20.83
2019-02-19T17:37:33.481Z,19.77
2019-02-19T17:40:13.120Z,20.07
2019-02-19T17:42:51.588Z,18.97
2019-02-19T17:45:42.974Z,18.70
2019-02-19T17:48:13.991Z,19.10
2019-02-19T17:50:50.213Z,23.50
2019-02-19T17:53:37.120Z,23.13
2019-02-19T17:56:24.047Z,21.70
2019-02-19T17:59:03.677Z,23.23
2019-02-19T18:01:34.258Z,26.07
2019-02-19T18:04:10.986Z,23.20
2019-02-19T18:06:41.452Z,25.77
2019-02-19T18:09:15.057Z,23.73
2019-02-19T18:11:50.987Z,24.03
2019-02-19T18:14:24.168Z,26.27
2019-02-19T18:17:06.662Z,27.97
2019-02-19T18:19:39.100Z,24.43
2019-02-19T18:22:12.250Z,22.03
2019-02-19T18:24:41.263Z,25.73
2019-02-19T18:27:12.663Z,27.77
2019-02-19T18:29:41.685Z,23.00
2019-02-19T18:32:13.598Z,22.73
2019-02-19T18:34:54.170Z,22.30
2019-02-19T18:37:28.535Z,23.60
2019-02-19T18:39:59.836Z,20.60
2019-02-19T18:42:33.103Z,22.10
2019-02-19T18:45:05.391Z,19.43
2019-02-19T18:47:34.328Z,21.87
2019-02-19T18:50:03.654Z,17.53
2019-02-19T18:52:32.555Z,19.77
2019-02-19T18:55:08.186Z,23.00
2019-02-19T18:57:37.346Z,23.03
2019-02-19T19:00:09.891Z,20.90
2019-02-19T19:02:38.755Z,24.93
2019-02-19T19:05:08.204Z,28.77
2019-02-19T19:07:37.181Z,22.10
2019-02-19T19:10:09.197Z,22.20
2019-02-19T19:12:49.007Z,24.87
2019-02-19T19:15:18.505Z,23.80
2019-02-19T19:17:47.515Z,25.00
2019-02-19T19:20:16.511Z,20.37
2019-02-19T19:22:47.066Z,22.93
2019-02-19T19:25:18.241Z,20.33
2019-02-19T19:27:47.117Z,25.47
2019-02-19T19:30:16.452Z,18.57
2019-02-19T19:32:45.259Z,22.70
2019-02-19T19:35:14.539Z,22.80
2019-02-19T19:37:43.544Z,22.63
2019-02-19T19:40:13.166Z,25.73
2019-02-19T19:42:42.048Z,21.60
2019-02-19T19:45:13.595Z,24.60
2019-02-19T19:47:53.021Z,21.90
2019-02-19T19:50:23.305Z,21.67
2019-02-19T19:53:03.882Z,23.40
2019-02-19T19:55:36.075Z,20.40
2019-02-19T19:58:11.080Z,18.97
2019-02-19T20:00:48.450Z,19.53
2019-02-19T20:03:17.483Z,18.73
2019-02-19T20:05:47.087Z,19.30
2019-02-19T20:08:16.561Z,19.20
2019-02-19T20:14:30.218Z,19.33
2019-02-19T20:19:28.329Z,19.03
2019-02-19T20:22:07.320Z,18.77
2019-02-19T20:27:45.804Z,23.53
2019-02-19T20:30:16.431Z,22.63
2019-02-19T20:35:16.225Z,22.80
2019-02-19T20:37:57.156Z,21.57
2019-02-19T20:40:29.660Z,21.47
2019-02-19T20:42:58.707Z,22.07
2019-02-19T20:45:27.457Z,23.30
2019-02-19T20:47:56.342Z,21.90
2019-02-19T20:50:25.185Z,22.40
2019-02-19T20:52:58.600Z,23.10
2019-02-19T20:55:36.525Z,24.53
2019-02-19T20:57:57.967Z,23.17
2019-02-19T21:00:28.556Z,24.73
2019-02-19T21:02:57.468Z,25.20
2019-02-19T21:05:29.545Z,25.07
2019-02-19T21:08:01.959Z,23.67
2019-02-19T21:10:37.828Z,23.27
2019-02-19T21:13:08.969Z,25.03
2019-02-19T21:15:49.559Z,21.77
2019-02-19T21:18:21.435Z,21.63
2019-02-19T21:20:50.407Z,23.07
2019-02-19T21:23:19.372Z,20.10
2019-02-19T21:25:50.498Z,23.53
2019-02-19T21:28:19.911Z,21.23
2019-02-19T21:30:48.791Z,22.67
2019-02-19T21:33:21.047Z,24.43
2019-02-19T21:35:50.461Z,23.43
2019-02-19T21:38:19.405Z,24.43
2019-02-19T21:40:50.913Z,26.27
2019-02-19T21:46:34.156Z,24.53
2019-02-19T21:49:03.116Z,25.80
2019-02-19T21:51:32.026Z,24.40
2019-02-19T21:54:03.947Z,24.87
2019-02-19T21:59:04.532Z,24.87
2019-02-19T22:01:35.570Z,22.87
2019-02-19T22:04:04.678Z,24.07
2019-02-19T22:06:36.554Z,25.60
2019-02-19T22:09:19.212Z,23.10
2019-02-19T22:11:48.299Z,21.07
2019-02-19T22:14:20.509Z,20.83
2019-02-19T22:19:37.664Z,24.00
2019-02-19T22:22:08.828Z,22.03
2019-02-19T22:24:39.791Z,27.23
2019-02-19T22:27:09.870Z,23.23
2019-02-19T22:29:39.746Z,22.43
2019-02-19T22:32:09.253Z,26.13
2019-02-19T22:34:52.996Z,21.27
2019-02-19T22:37:24.645Z,25.17
2019-02-19T22:40:00.245Z,23.17
2019-02-19T22:42:29.028Z,23.63
2019-02-19T22:44:57.880Z,25.77
2019-02-19T22:47:30.026Z,23.23
2019-02-19T22:49:58.821Z,21.30
2019-02-19T22:52:27.760Z,27.57
2019-02-19T22:55:14.571Z,27.20
2019-02-19T22:57:46.470Z,25.17
2019-02-19T23:00:28.708Z,23.53
2019-02-19T23:03:03.964Z,26.10
2019-02-19T23:05:48.341Z,23.17
2019-02-19T23:08:17.201Z,26.37
2019-02-19T23:10:46.541Z,24.37
2019-02-19T23:13:15.639Z,26.37
2019-02-19T23:15:45.110Z,22.17
2019-02-19T23:18:35.184Z,26.60
2019-02-19T23:21:04.596Z,25.37
2019-02-19T23:23:34.991Z,23.00
2019-02-19T23:26:09.541Z,27.07
2019-02-19T23:28:38.442Z,24.53
2019-02-19T23:31:07.359Z,24.43
2019-02-19T23:33:36.532Z,25.13
2019-02-19T23:36:25.689Z,28.73
2019-02-19T23:38:55.953Z,23.33
2019-02-19T23:41:24.749Z,25.00
2019-02-19T23:44:01.148Z,25.50
2019-02-19T23:46:30.392Z,24.57
2019-02-19T23:49:05.062Z,24.20
2019-02-19T23:51:34.037Z,22.67
2019-02-19T23:54:02.928Z,23.97
2019-02-19T23:56:31.894Z,24.73
2019-02-19T23:59:00.802Z,24.17
